Time;durP1;ratioP1;P1;durP2;ratioP2;P2;SDS_P1;SDS_P2;PMS_P1;PMS_P2;Temp;Humidity;BMP_temperature;BMP_pressure;BME280_temperature;BME280_humidity;BME280_pressure;Samples;Min_cycle;Max_cycle;Signal;HPM_P1;HPM_P2
2022/07/23 00:00:24;;;;;;;13.23;4.35;;;;;;;13.79;100.00;101781.75;1051326;28;20042;-77
2022/07/23 00:00:55;;;;;;;5.50;2.95;;;;;;;13.76;100.00;101785.66;1047697;28;20221;-77
2022/07/23 00:01:28;;;;;;;4.18;3.78;;;;;;;13.75;100.00;101785.88;1051968;28;20040;-77
2022/07/23 00:02:00;;;;;;;4.63;4.22;;;;;;;13.74;100.00;101782.38;1051367;28;20437;-77
2022/07/23 00:02:32;;;;;;;5.20;3.80;;;;;;;13.74;100.00;101782.38;1051741;28;20040;-78
2022/07/23 00:03:03;;;;;;;4.60;3.60;;;;;;;13.76;100.00;101780.31;1051701;28;20048;-77
2022/07/23 00:03:35;;;;;;;4.72;4.10;;;;;;;13.78;100.00;101775.56;1047692;28;20040;-77
2022/07/23 00:04:07;;;;;;;5.18;3.05;;;;;;;13.76;100.00;101785.66;1047483;28;20098;-77
2022/07/23 00:04:38;;;;;;;3.90;3.60;;;;;;;13.74;100.00;101782.38;1047406;28;20040;-77
2022/07/23 00:05:10;;;;;;;5.13;3.88;;;;;;;13.78;100.00;101777.41;1048071;28;20036;-77
2022/07/23 00:05:41;;;;;;;5.40;3.75;;;;;;;13.78;100.00;101766.72;1047789;28;20048;-77
2022/07/23 00:06:13;;;;;;;4.60;3.85;;;;;;;13.76;100.00;101780.31;1048168;28;20049;-78
2022/07/23 00:06:45;;;;;;;4.43;4.13;;;;;;;13.77;100.00;101771.25;1043525;28;20059;-77
2022/07/23 00:07:16;;;;;;;4.40;4.00;;;;;;;13.73;100.00;101775.38;1043391;28;20049;-77
2022/07/23 00:07:48;;;;;;;4.28;3.95;;;;;;;13.73;100.00;101775.38;1044909;28;20059;-77
2022/07/23 00:08:20;;;;;;;4.30;3.90;;;;;;;13.72;100.00;101768.41;1044409;28;20045;-77
2022/07/23 00:08:52;;;;;;;7.28;4.22;;;;;;;13.72;100.00;101773.75;1048122;28;20261;-77
2022/07/23 00:09:23;;;;;;;4.65;4.25;;;;;;;13.69;100.00;101778.69;1044891;28;20044;-77
2022/07/23 00:09:55;;;;;;;4.93;4.43;;;;;;;13.64;100.00;101779.31;1043817;28;20041;-78
2022/07/23 00:10:26;;;;;;;7.32;4.72;;;;;;;13.59;100.00;101777.28;1040499;28;20124;-77
2022/07/23 00:10:58;;;;;;;3.95;3.65;;;;;;;13.55;100.00;101777.94;1044759;28;20060;-77
2022/07/23 00:11:29;;;;;;;6.68;5.32;;;;;;;13.54;100.00;101776.28;1048449;28;20048;-77
2022/07/23 00:12:01;;;;;;;4.38;3.75;;;;;;;13.51;100.00;101776.72;1040387;28;20060;-77
2022/07/23 00:12:33;;;;;;;4.43;3.90;;;;;;;13.44;100.00;101776.75;1040078;28;20046;-77
2022/07/23 00:13:04;;;;;;;5.80;4.00;;;;;;;13.45;100.00;101777.59;1035850;28;20065;-77
2022/07/23 00:13:36;;;;;;;10.02;4.72;;;;;;;13.40;100.00;101778.19;1037047;28;20045;-77
2022/07/23 00:14:08;;;;;;;4.95;4.45;;;;;;;13.29;100.00;101778.88;1045883;28;20037;-77
2022/07/23 00:14:39;;;;;;;4.68;3.88;;;;;;;13.34;100.00;101775.53;1040498;28;20052;-77
2022/07/23 00:15:11;;;;;;;8.70;4.38;;;;;;;13.38;100.00;101779.44;1043648;28;20178;-77
2022/07/23 00:15:42;;;;;;;4.90;4.40;;;;;;;13.41;100.00;101776.34;1044200;28;20045;-77
2022/07/23 00:16:14;;;;;;;6.53;4.90;;;;;;;13.42;100.00;101777.97;1041044;28;20057;-77
2022/07/23 00:16:46;;;;;;;4.82;4.43;;;;;;;13.37;100.00;101775.94;1047941;28;20045;-77
2022/07/23 00:17:17;;;;;;;8.27;4.68;;;;;;;13.36;100.00;101776.16;1044333;28;20053;-77
2022/07/23 00:17:49;;;;;;;7.72;4.75;;;;;;;13.33;100.00;101777.41;1044633;28;20045;-77
2022/07/23 00:18:21;;;;;;;8.00;5.78;;;;;;;13.29;100.00;101774.31;1043762;28;20091;-77
2022/07/23 00:18:53;;;;;;;4.55;4.15;;;;;;;13.20;100.00;101780.97;1041024;28;20496;-77
2022/07/23 00:19:24;;;;;;;6.65;4.57;;;;;;;13.20;100.00;101772.94;1040587;28;20045;-77
2022/07/23 00:19:56;;;;;;;4.88;4.47;;;;;;;13.24;100.00;101776.81;1040303;28;20491;-77
2022/07/23 00:20:27;;;;;;;7.80;5.70;;;;;;;13.26;100.00;101782.78;1044751;28;20045;-77
2022/07/23 00:20:59;;;;;;;5.50;4.43;;;;;;;13.26;100.00;101780.09;1048903;28;20094;-77
2022/07/23 00:21:31;;;;;;;9.00;5.20;;;;;;;13.28;100.00;101769.19;1052151;28;20061;-77
2022/07/23 00:22:02;;;;;;;6.05;5.55;;;;;;;13.31;100.00;101774.13;1052223;28;20043;-77
2022/07/23 00:22:35;;;;;;;6.22;4.72;;;;;;;13.34;100.00;101767.53;1047461;28;20130;-77
2022/07/23 00:23:06;;;;;;;5.18;4.78;;;;;;;13.38;100.00;101772.22;1052322;28;20048;-77
2022/07/23 00:23:39;;;;;;;5.63;5.13;;;;;;;13.41;100.00;101770.97;1053129;28;20044;-77
2022/07/23 00:24:10;;;;;;;9.13;5.55;;;;;;;13.33;100.00;101765.88;1056111;28;20540;-77
2022/07/23 00:24:42;;;;;;;7.38;4.97;;;;;;;13.34;100.00;101770.19;1052641;28;20084;-77
2022/07/23 00:25:34;;;;;;;6.43;4.93;;;;;;;13.33;100.00;101773.91;1047533;28;20299;-77
2022/07/23 00:26:07;;;;;;;4.95;4.55;;;;;;;13.30;100.00;101765.28;1048397;28;20044;-77
2022/07/23 00:26:39;;;;;;;5.25;4.85;;;;;;;13.34;100.00;101775.53;1047903;28;20434;-77
2022/07/23 00:27:10;;;;;;;7.55;5.50;;;;;;;13.36;100.00;101773.47;1048141;28;20041;-78
2022/07/23 00:27:42;;;;;;;5.43;5.03;;;;;;;13.37;100.00;101764.41;1044103;28;20288;-77
2022/07/23 00:28:14;;;;;;;6.57;4.97;;;;;;;13.39;100.00;101768.53;1039994;28;20077;-77
2022/07/23 00:28:46;;;;;;;16.52;4.95;;;;;;;13.38;100.00;101771.41;1039726;28;20056;-77
2022/07/23 00:29:17;;;;;;;5.65;4.90;;;;;;;13.40;100.00;101774.69;1037137;28;20041;-77
2022/07/23 00:29:49;;;;;;;6.07;5.60;;;;;;;13.40;100.00;101769.34;1039922;28;20046;-77
2022/07/23 00:30:21;;;;;;;6.20;5.20;;;;;;;13.45;100.00;101773.03;1048212;28;20506;-77
2022/07/23 00:30:52;;;;;;;9.68;5.25;;;;;;;13.41;100.00;101765.63;1048812;28;20044;-77
2022/07/23 00:31:25;;;;;;;5.30;4.80;;;;;;;13.38;100.00;101768.72;1047581;28;20064;-77
2022/07/23 00:31:56;;;;;;;6.03;4.72;;;;;;;13.37;100.00;101767.91;1052210;28;20039;-77
2022/07/23 00:32:28;;;;;;;6.20;4.65;;;;;;;13.41;100.00;101773.66;1052309;28;20429;-77
2022/07/23 00:33:20;;;;;;;9.10;5.30;;;;;;;13.38;100.00;101766.88;1048058;28;20040;-77
2022/07/23 00:33:52;;;;;;;6.25;5.28;;;;;;;13.37;100.00;101770.59;1047800;28;20505;-77
2022/07/23 00:34:24;;;;;;;6.45;4.72;;;;;;;13.36;100.00;101770.81;1043884;28;20048;-77
2022/07/23 00:34:55;;;;;;;8.93;5.05;;;;;;;13.34;100.00;101775.53;1039928;28;20042;-77
2022/07/23 00:35:29;;;;;;;5.68;4.47;;;;;;;13.37;100.00;101772.44;1036282;28;20454;-77
2022/07/23 00:36:02;;;;;;;7.40;5.28;;;;;;;13.37;100.00;101775.94;1041224;28;20527;-77
2022/07/23 00:36:33;;;;;;;7.40;5.13;;;;;;;13.42;100.00;101769.94;1045048;28;20049;-77
2022/07/23 00:37:05;;;;;;;7.70;4.25;;;;;;;13.40;100.00;101770.16;1045085;28;20050;-77
2022/07/23 00:37:36;;;;;;;5.07;4.60;;;;;;;13.39;100.00;101773.06;1043829;28;20526;-77
2022/07/23 00:38:09;;;;;;;4.80;4.40;;;;;;;13.39;100.00;101770.38;1044489;28;20041;-77
2022/07/23 00:38:41;;;;;;;4.90;4.50;;;;;;;13.41;100.00;101770.97;1044889;28;20060;-77
2022/07/23 00:39:13;;;;;;;7.38;4.43;;;;;;;13.41;100.00;101769.13;1042563;28;20052;-77
2022/07/23 00:39:45;;;;;;;9.75;5.00;;;;;;;13.39;100.00;101767.69;1048079;28;20041;-77
2022/07/23 00:40:16;;;;;;;6.38;4.40;;;;;;;13.44;100.00;101770.59;1046948;28;20048;-77
2022/07/23 00:40:48;;;;;;;4.45;4.15;;;;;;;13.37;100.00;101775.13;1044315;28;20103;-77
2022/07/23 00:41:19;;;;;;;5.30;4.80;;;;;;;13.37;100.00;101769.75;1043950;28;20040;-77
2022/07/23 00:41:51;;;;;;;7.82;5.03;;;;;;;13.37;100.00;101762.56;1040457;28;20037;-77
2022/07/23 00:42:23;;;;;;;5.03;4.50;;;;;;;13.39;100.00;101770.38;1040308;28;20048;-77
2022/07/23 00:42:55;;;;;;;6.68;4.60;;;;;;;13.30;100.00;101765.28;1039589;28;20049;-77
2022/07/23 00:43:27;;;;;;;5.85;4.55;;;;;;;13.35;100.00;101769.16;1044635;28;20040;-77
2022/07/23 00:44:15;;;;;;;5.38;4.57;;;;;;;13.30;100.00;101767.94;1044423;28;20079;-77
2022/07/23 00:44:47;;;;;;;7.10;3.78;;;;;;;13.28;100.00;101772.69;1046688;28;21449;-77
2022/07/23 00:45:19;;;;;;;4.07;3.70;;;;;;;13.29;100.00;101768.97;1048402;28;20048;-77
2022/07/23 00:45:51;;;;;;;10.85;4.97;;;;;;;13.33;100.00;101768.56;1047878;28;20051;-77
2022/07/23 00:46:22;;;;;;;5.22;4.53;;;;;;;13.28;100.00;101761.97;1048470;28;20066;-77
2022/07/23 00:46:58;;;;;;;4.60;3.92;;;;;;;13.26;100.00;101774.75;1048169;28;20299;-77
2022/07/23 00:47:30;;;;;;;5.47;3.95;;;;;;;13.27;100.00;101772.91;1044728;28;20041;-77
2022/07/23 00:48:02;;;;;;;5.47;4.15;;;;;;;13.30;100.00;101767.94;1043905;28;20041;-77
2022/07/23 00:48:33;;;;;;;11.55;4.45;;;;;;;13.33;100.00;101768.56;1045107;28;20378;-77
2022/07/23 00:49:05;;;;;;;4.38;3.97;;;;;;;13.29;100.00;101771.66;1048812;28;20298;-77
2022/07/23 00:49:37;;;;;;;5.80;4.00;;;;;;;13.25;100.00;101772.28;1048465;28;20350;-77
2022/07/23 00:50:09;;;;;;;5.03;4.63;;;;;;;13.14;100.00;101773.72;1044277;28;20311;-77
2022/07/23 00:50:42;;;;;;;6.25;4.68;;;;;;;13.13;100.00;101773.94;1034778;28;20281;-77
2022/07/23 00:51:17;;;;;;;4.68;4.15;;;;;;;13.13;100.00;101769.41;1040377;28;20041;-77
2022/07/23 00:51:49;;;;;;;4.25;3.90;;;;;;;13.13;100.00;101772.06;1042228;28;20163;-77
2022/07/23 00:52:21;;;;;;;4.47;4.00;;;;;;;13.09;100.00;101762.81;1046003;28;20409;-77
2022/07/23 00:52:53;;;;;;;4.15;3.85;;;;;;;13.07;100.00;101775.59;1039695;28;20045;-77
2022/07/23 00:53:25;;;;;;;3.92;3.60;;;;;;;13.09;100.00;101765.50;1036359;28;20861;-77
2022/07/23 00:53:56;;;;;;;5.72;3.92;;;;;;;13.10;100.00;101775.16;1040704;28;20038;-77
2022/07/23 00:54:28;;;;;;;5.15;4.65;;;;;;;13.11;100.00;101768.78;1045061;28;20333;-77
2022/07/23 00:55:04;;;;;;;4.10;3.72;;;;;;;13.07;100.00;101770.25;1048511;28;20044;-77
2022/07/23 00:55:36;;;;;;;4.30;3.90;;;;;;;13.10;100.00;101769.00;1052145;28;20036;-77
2022/07/23 00:56:08;;;;;;;5.82;4.32;;;;;;;13.10;100.00;101774.34;1052309;28;20290;-77
2022/07/23 00:56:41;;;;;;;4.45;3.88;;;;;;;13.12;100.00;101777.63;1048053;28;20291;-78
2022/07/23 00:57:12;;;;;;;4.80;4.28;;;;;;;13.11;100.00;101776.81;1039485;28;20049;-77
2022/07/23 00:57:44;;;;;;;5.82;4.35;;;;;;;13.10;100.00;101785.06;1040887;28;20057;-77
2022/07/23 00:58:17;;;;;;;4.50;4.20;;;;;;;13.10;100.00;101775.16;1044849;28;20048;-77
2022/07/23 00:58:48;;;;;;;5.10;4.60;;;;;;;13.10;100.00;101779.69;1044906;28;20310;-77
2022/07/23 00:59:20;;;;;;;5.10;4.57;;;;;;;13.07;100.00;101774.78;1052262;28;20051;-77
2022/07/23 00:59:52;;;;;;;4.53;4.13;;;;;;;12.99;100.00;101779.31;1048030;28;20294;-77
2022/07/23 01:00:23;;;;;;;4.40;3.97;;;;;;;12.93;100.00;101774.00;1044211;28;20359;-77
2022/07/23 01:00:55;;;;;;;5.03;3.13;;;;;;;12.87;100.00;101775.63;1046798;28;20352;-77
2022/07/23 01:01:27;;;;;;;5.60;3.80;;;;;;;12.84;100.00;101777.91;1044527;28;20838;-77
2022/07/23 01:01:58;;;;;;;3.65;3.35;;;;;;;12.79;100.00;101783.88;1048392;28;20541;-77
2022/07/23 01:02:30;;;;;;;6.43;3.45;;;;;;;12.72;100.00;101774.22;1047585;28;20905;-77
2022/07/23 01:03:02;;;;;;;4.60;3.60;;;;;;;12.61;100.00;101775.69;1048816;28;20099;-77
2022/07/23 01:03:33;;;;;;;3.78;3.40;;;;;;;12.62;100.00;101778.16;1052238;28;20293;-77
2022/07/23 01:04:05;;;;;;;4.35;3.97;;;;;;;12.54;100.00;101775.66;1048431;28;20426;-77
2022/07/23 01:04:37;;;;;;;3.47;3.17;;;;;;;12.53;100.00;101774.03;1044010;28;20291;-77
2022/07/23 01:05:09;;;;;;;4.15;3.85;;;;;;;12.52;100.00;101772.38;1039650;28;20037;-77
2022/07/23 01:05:41;;;;;;;8.55;3.38;;;;;;;12.48;100.00;101779.16;1035919;28;20312;-78
2022/07/23 01:06:14;;;;;;;4.47;3.83;;;;;;;12.46;100.00;101772.38;1040631;28;20311;-77
2022/07/23 01:06:47;;;;;;;4.88;3.58;;;;;;;12.46;100.00;101773.22;1044734;28;20106;-77
2022/07/23 01:07:19;;;;;;;4.40;3.97;;;;;;;12.49;100.00;101772.78;1049025;28;20155;-77
2022/07/23 01:07:51;;;;;;;4.07;3.67;;;;;;;12.50;100.00;101777.09;1052510;28;20327;-77
2022/07/23 01:08:27;;;;;;;12.68;4.07;;;;;;;12.49;100.00;101762.09;1043833;28;20292;-77
2022/07/23 01:08:58;;;;;;;4.20;3.80;;;;;;;12.44;100.00;101763.75;1035618;28;20585;-77
2022/07/23 01:09:31;;;;;;;3.95;3.65;;;;;;;12.37;100.00;101769.09;1036580;28;20038;-77
2022/07/23 01:10:03;;;;;;;4.47;4.07;;;;;;;12.37;100.00;101763.75;1041498;28;20292;-77
2022/07/23 01:10:37;;;;;;;8.07;4.20;;;;;;;12.34;100.00;101766.84;1044844;28;20037;-77
2022/07/23 01:11:09;;;;;;;4.70;4.22;;;;;;;12.36;100.00;101764.78;1043597;28;20040;-77
2022/07/23 01:11:41;;;;;;;4.05;3.75;;;;;;;12.28;100.00;101764.97;1039748;28;20193;-77
2022/07/23 01:12:14;;;;;;;3.70;3.40;;;;;;;12.29;100.00;101755.94;1036567;28;20052;-77
2022/07/23 01:12:45;;;;;;;3.80;3.50;;;;;;;12.26;100.00;101761.69;1039539;28;20394;-77
2022/07/23 01:13:17;;;;;;;5.75;3.75;;;;;;;12.31;100.00;101759.22;1035421;28;20305;-77
2022/07/23 01:13:49;;;;;;;6.07;3.80;;;;;;;12.28;100.00;101755.09;1040028;28;20312;-77
2022/07/23 01:14:21;;;;;;;6.03;3.60;;;;;;;12.28;100.00;101749.75;1047889;28;20037;-77
2022/07/23 01:14:59;;;;;;;3.42;3.22;;;;;;;12.32;100.00;101750.16;1048472;28;20337;-77
2022/07/23 01:15:34;;;;;;;4.18;3.88;;;;;;;12.27;100.00;101750.78;1047713;28;20044;-77
2022/07/23 01:16:09;;;;;;;4.55;3.53;;;;;;;12.26;100.00;101751.00;1047977;28;20616;-77
2022/07/23 01:16:43;;;;;;;4.00;3.70;;;;;;;12.25;100.00;101760.03;1043854;28;20045;-77
2022/07/23 01:17:15;;;;;;;4.35;3.95;;;;;;;12.21;100.00;101748.13;1042954;28;20821;-77
2022/07/23 01:17:47;;;;;;;12.02;4.00;;;;;;;12.26;100.00;101751.00;1043686;28;20043;-77
2022/07/23 01:18:18;;;;;;;3.90;3.60;;;;;;;12.31;100.00;101754.69;1040370;28;20308;-77
2022/07/23 01:18:50;;;;;;;5.20;3.53;;;;;;;12.32;100.00;101758.19;1036347;28;20092;-77
2022/07/23 01:19:22;;;;;;;8.52;3.80;;;;;;;12.28;100.00;101751.63;1035395;28;20049;-77
2022/07/23 01:19:54;;;;;;;3.60;3.40;;;;;;;12.28;100.00;101749.75;1035429;28;20308;-77
2022/07/23 01:20:25;;;;;;;5.72;5.18;;;;;;;12.31;100.00;101752.03;1036501;28;20666;-77
2022/07/23 01:20:58;;;;;;;3.15;2.95;;;;;;;12.32;100.00;101758.19;1032507;28;20328;-77
2022/07/23 01:21:30;;;;;;;4.10;3.80;;;;;;;12.28;100.00;101751.63;1036031;28;20318;-77
2022/07/23 01:22:03;;;;;;;3.70;3.10;;;;;;;12.24;100.00;101758.41;1039807;28;20805;-77
2022/07/23 01:22:35;;;;;;;6.00;3.40;;;;;;;12.20;100.00;101757.97;1039273;28;20307;-77
2022/07/23 01:23:07;;;;;;;3.15;2.95;;;;;;;12.21;100.00;101756.13;1035632;28;20041;-77
2022/07/23 01:23:41;;;;;;;4.72;3.80;;;;;;;12.16;100.00;101755.94;1031444;28;20395;-77
2022/07/23 01:24:13;;;;;;;3.92;3.63;;;;;;;12.11;100.00;101753.88;1030890;28;20305;-77
2022/07/23 01:24:53;;;;;;;3.63;3.42;;;;;;;12.15;100.00;101754.28;1035639;28;20312;-77
2022/07/23 01:25:28;;;;;;;3.60;3.35;;;;;;;12.14;100.00;101755.31;1039917;28;20052;-77
2022/07/23 01:26:05;;;;;;;3.95;3.10;;;;;;;12.13;100.00;101749.16;1041788;28;20303;-77
2022/07/23 01:26:38;;;;;;;3.88;3.58;;;;;;;12.06;100.00;101743.00;1045305;28;20839;-77
2022/07/23 01:27:10;;;;;;;4.50;4.05;;;;;;;12.15;100.00;101756.97;1041073;28;20407;-77
2022/07/23 01:27:42;;;;;;;3.95;3.60;;;;;;;12.15;100.00;101748.94;1044393;28;20307;-77
2022/07/23 01:28:14;;;;;;;3.85;3.50;;;;;;;12.14;100.00;101747.31;1039449;28;20717;-76
2022/07/23 01:28:45;;;;;;;3.90;3.60;;;;;;;12.11;100.00;101750.38;1040963;28;20296;-77
2022/07/23 01:29:18;;;;;;;3.17;2.97;;;;;;;12.09;100.00;101752.44;1039217;28;20296;-77
2022/07/23 01:29:51;;;;;;;3.20;2.90;;;;;;;12.09;100.00;101763.13;1040149;28;20304;-77
2022/07/23 01:30:24;;;;;;;5.75;3.05;;;;;;;12.05;100.00;101750.19;1040228;28;21034;-77
2022/07/23 01:30:56;;;;;;;3.63;3.13;;;;;;;12.11;100.00;101758.41;1039950;28;20308;-77
2022/07/23 01:31:28;;;;;;;3.75;3.45;;;;;;;11.97;100.00;101757.53;1039455;28;20311;-77
2022/07/23 01:32:02;;;;;;;3.80;3.50;;;;;;;11.85;100.00;101759.16;1037176;28;20360;-77
2022/07/23 01:32:34;;;;;;;3.63;3.33;;;;;;;11.82;100.00;101755.06;1036681;28;20384;-77
2022/07/23 01:33:05;;;;;;;3.25;3.03;;;;;;;11.87;100.00;101759.78;1040392;28;20303;-77
2022/07/23 01:33:37;;;;;;;4.00;3.70;;;;;;;11.87;100.00;101763.28;1040595;28;20306;-77
2022/07/23 01:34:10;;;;;;;7.28;3.60;;;;;;;11.93;100.00;101751.78;1038154;28;20387;-77
2022/07/23 01:34:41;;;;;;;4.47;3.60;;;;;;;11.87;100.00;101755.28;1041600;28;20890;-77
2022/07/23 01:35:13;;;;;;;3.83;3.53;;;;;;;11.83;100.00;101756.72;1040105;28;20308;-77
2022/07/23 01:35:45;;;;;;;4.68;4.28;;;;;;;11.83;100.00;101754.03;1044468;28;20322;-77
2022/07/23 01:36:22;;;;;;;4.63;3.63;;;;;;;11.95;100.00;101752.41;1049249;28;20327;-77
2022/07/23 01:36:54;;;;;;;4.07;3.78;;;;;;;11.99;100.00;101758.97;1045517;28;20307;-77
2022/07/23 01:37:26;;;;;;;3.97;3.50;;;;;;;12.04;100.00;101758.38;1047624;28;20784;-77
2022/07/23 01:37:58;;;;;;;4.10;3.80;;;;;;;11.95;100.00;101756.91;1044090;28;20313;-77
2022/07/23 01:38:30;;;;;;;10.27;4.38;;;;;;;11.94;100.00;101761.44;1040347;28;20304;-77
2022/07/23 01:39:03;;;;;;;13.05;5.55;;;;;;;11.92;100.00;101755.47;1034804;28;20309;-77
2022/07/23 01:39:35;;;;;;;6.65;4.60;;;;;;;11.92;100.00;101755.47;1036124;28;20307;-77
2022/07/23 01:40:07;;;;;;;9.13;4.85;;;;;;;11.85;100.00;101756.50;1040503;28;20124;-77
2022/07/23 01:40:40;;;;;;;6.03;4.40;;;;;;;11.83;100.00;101756.72;1041697;28;20296;-77
2022/07/23 01:41:14;;;;;;;9.13;5.55;;;;;;;11.74;100.00;101749.84;1048699;28;20661;-77
2022/07/23 01:41:46;;;;;;;5.40;4.30;;;;;;;11.73;100.00;101757.03;1043410;28;20307;-77
2022/07/23 01:42:24;;;;;;;7.55;3.85;;;;;;;11.79;100.00;101751.97;1036965;28;20317;-77
2022/07/23 01:42:56;;;;;;;6.05;4.63;;;;;;;11.79;100.00;101746.63;1031533;28;20830;-76
2022/07/23 01:43:28;;;;;;;8.82;4.35;;;;;;;11.85;100.00;101754.66;1031352;28;20297;-77
2022/07/23 01:44:00;;;;;;;5.13;4.40;;;;;;;11.94;100.00;101750.75;1032000;28;20313;-77
2022/07/23 01:44:33;;;;;;;5.82;4.05;;;;;;;11.97;100.00;101752.19;1035973;28;20408;-77
2022/07/23 01:45:05;;;;;;;5.35;4.85;;;;;;;12.02;100.00;101745.22;1039602;28;20812;-77
2022/07/23 01:45:38;;;;;;;5.47;5.05;;;;;;;11.92;100.00;101750.16;1043400;28;20914;-77
2022/07/23 01:46:10;;;;;;;6.22;4.70;;;;;;;11.88;100.00;101756.09;1040302;28;20323;-77
2022/07/23 01:46:47;;;;;;;6.60;5.07;;;;;;;11.86;100.00;101750.13;1037908;28;20365;-77
2022/07/23 01:47:19;;;;;;;9.45;3.75;;;;;;;11.87;100.00;101746.44;1034155;28;20305;-77
2022/07/23 01:47:53;;;;;;;4.95;4.20;;;;;;;11.88;100.00;101748.09;1036899;28;20315;-77
2022/07/23 01:48:25;;;;;;;4.47;3.20;;;;;;;11.85;100.00;101746.66;1041062;28;20311;-77
2022/07/23 01:49:29;;;;;;;3.42;3.05;;;;;;;11.79;100.00;101749.31;1035733;28;20774;-77
2022/07/23 01:50:19;;;;;;;7.63;3.42;;;;;;;11.68;100.00;101738.16;1039758;28;20283;-77
2022/07/23 01:51:09;;;;;;;2.53;2.35;;;;;;;11.57;100.00;101744.06;1052286;28;20301;-77
2022/07/23 01:52:10;;;;;;;6.53;3.60;;;;;;;11.61;100.00;101741.81;1044080;28;20349;-77
2022/07/23 01:52:44;;;;;;;3.92;3.20;;;;;;;11.70;100.00;101741.44;1042850;28;20798;-77
2022/07/23 01:53:16;;;;;;;3.50;3.20;;;;;;;11.67;100.00;101741.00;1048466;28;20858;-77
2022/07/23 01:53:48;;;;;;;5.35;3.30;;;;;;;11.63;100.00;101742.44;1047618;28;20842;-77
2022/07/23 01:54:20;;;;;;;3.50;3.13;;;;;;;11.53;100.00;101740.16;1047855;28;20299;-77
2022/07/23 01:54:52;;;;;;;4.05;3.65;;;;;;;11.55;100.00;101742.63;1047791;28;20324;-77
2022/07/23 01:55:23;;;;;;;5.57;3.58;;;;;;;11.53;100.00;101750.03;1048161;28;20291;-77
2022/07/23 01:55:55;;;;;;;4.00;3.25;;;;;;;11.51;100.00;101744.06;1052191;28;20551;-77
2022/07/23 01:56:27;;;;;;;5.75;3.70;;;;;;;11.49;100.00;101746.06;1047526;28;20295;-77
2022/07/23 01:56:59;;;;;;;4.40;3.67;;;;;;;11.45;100.00;101743.81;1043322;28;20438;-77
2022/07/23 01:57:31;;;;;;;6.15;3.35;;;;;;;11.43;100.00;101751.19;1035631;28;20375;-77
2022/07/23 01:58:03;;;;;;;4.90;3.20;;;;;;;11.39;100.00;101749.94;1035254;28;20309;-77
2022/07/23 01:58:35;;;;;;;3.97;3.55;;;;;;;11.38;100.00;101752.81;1039445;28;20300;-76
2022/07/23 01:59:07;;;;;;;10.82;3.90;;;;;;;11.38;100.00;101748.31;1039796;28;20304;-77
2022/07/23 01:59:39;;;;;;;5.35;3.45;;;;;;;11.39;100.00;101744.63;1029659;28;20922;-77
2022/07/23 02:00:12;;;;;;;3.70;3.10;;;;;;;11.33;100.00;101745.41;1036911;28;20304;-77
2022/07/23 02:00:46;;;;;;;3.63;3.15;;;;;;;11.28;100.00;101742.53;1038124;28;20840;-77
2022/07/23 02:01:18;;;;;;;8.80;3.50;;;;;;;11.28;100.00;101742.53;1044038;28;20298;-77
2022/07/23 02:01:50;;;;;;;4.57;4.18;;;;;;;11.31;100.00;101741.31;1044415;28;20295;-77
2022/07/23 02:02:23;;;;;;;4.00;3.60;;;;;;;11.29;100.00;101744.19;1048356;28;20321;-77
2022/07/23 02:02:58;;;;;;;3.63;3.30;;;;;;;11.35;100.00;101743.38;1039241;28;20060;-77
2022/07/23 02:03:31;;;;;;;7.38;3.65;;;;;;;11.39;100.00;101736.63;1036926;28;20335;-76
2022/07/23 02:04:03;;;;;;;4.97;3.22;;;;;;;11.42;100.00;101744.22;1034706;28;20298;-76
2022/07/23 02:04:36;;;;;;;10.20;3.38;;;;;;;11.46;100.00;101733.97;1038304;28;20309;-77
2022/07/23 02:05:08;;;;;;;4.25;3.22;;;;;;;11.49;100.00;101738.06;1043667;28;20833;-77
2022/07/23 02:05:41;;;;;;;4.65;3.55;;;;;;;11.48;100.00;101731.09;1044606;28;20393;-77
2022/07/23 02:06:12;;;;;;;3.85;3.55;;;;;;;11.48;100.00;101741.75;1045678;28;20286;-76
2022/07/23 02:06:44;;;;;;;2.67;2.47;;;;;;;11.51;100.00;101736.88;1046462;28;20302;-77
2022/07/23 02:07:16;;;;;;;2.28;2.17;;;;;;;11.52;100.00;101727.03;1051942;28;20298;-76
2022/07/23 02:07:48;;;;;;;5.28;2.67;;;;;;;11.54;100.00;101735.66;1047689;28;20306;-77
2022/07/23 02:08:19;;;;;;;3.55;2.30;;;;;;;11.54;100.00;101741.00;1047574;28;20379;-77
2022/07/23 02:08:51;;;;;;;2.35;2.17;;;;;;;11.54;100.00;101735.66;1048365;28;20297;-77
2022/07/23 02:09:26;;;;;;;3.17;2.92;;;;;;;11.54;100.00;101738.31;1043824;28;20793;-77
2022/07/23 02:09:57;;;;;;;3.15;2.95;;;;;;;11.54;100.00;101738.31;1039165;28;20304;-76
2022/07/23 02:10:29;;;;;;;2.70;2.45;;;;;;;11.54;100.00;101730.31;1040255;28;20733;-77
2022/07/23 02:11:00;;;;;;;3.75;2.25;;;;;;;11.55;100.00;101732.78;1038318;28;20327;-77
2022/07/23 02:11:32;;;;;;;2.80;2.30;;;;;;;11.58;100.00;101736.91;1044010;28;20299;-77
2022/07/23 02:12:04;;;;;;;3.67;3.38;;;;;;;11.50;100.00;101732.53;1048484;28;20283;-76
2022/07/23 02:12:36;;;;;;;3.30;2.95;;;;;;;11.46;100.00;101732.13;1052110;28;20290;-77
2022/07/23 02:13:07;;;;;;;4.40;4.00;;;;;;;11.37;100.00;101733.31;1048236;28;20333;-77
2022/07/23 02:13:40;;;;;;;4.90;2.95;;;;;;;11.34;100.00;101733.72;1052251;28;20294;-77
2022/07/23 02:14:11;;;;;;;3.33;3.03;;;;;;;11.38;100.00;101732.31;1052038;28;20294;-76
2022/07/23 02:14:44;;;;;;;3.92;3.50;;;;;;;11.37;100.00;101735.16;1051749;28;20703;-77
2022/07/23 02:15:16;;;;;;;4.15;3.85;;;;;;;11.32;100.00;101738.44;1051767;28;20389;-76
2022/07/23 02:15:47;;;;;;;3.95;3.63;;;;;;;11.31;100.00;101733.31;1052171;28;20584;-77
2022/07/23 02:16:19;;;;;;;3.75;3.25;;;;;;;11.30;100.00;101735.16;1047030;28;20403;-77
2022/07/23 02:16:51;;;;;;;2.85;2.65;;;;;;;11.31;100.00;101736.78;1035354;28;20323;-77
2022/07/23 02:17:22;;;;;;;3.22;3.03;;;;;;;11.28;100.00;101739.88;1036088;28;20308;-77
2022/07/23 02:17:55;;;;;;;3.67;2.88;;;;;;;11.21;100.00;101736.31;1040203;28;20665;-77
2022/07/23 02:18:27;;;;;;;4.50;3.35;;;;;;;11.18;100.00;101736.72;1043690;28;21163;-77
2022/07/23 02:18:58;;;;;;;3.67;3.38;;;;;;;11.19;100.00;101733.03;1044358;28;20348;-77
2022/07/23 02:19:30;;;;;;;6.13;3.85;;;;;;;11.14;100.00;101735.47;1043544;28;20658;-77
2022/07/23 02:20:02;;;;;;;3.03;2.70;;;;;;;11.11;100.00;101741.22;1044237;28;20303;-77
2022/07/23 02:20:34;;;;;;;9.95;3.75;;;;;;;11.11;100.00;101738.53;1048443;28;20279;-77
2022/07/23 02:21:06;;;;;;;3.75;3.45;;;;;;;11.10;100.00;101739.56;1046767;28;20316;-77
2022/07/23 02:21:40;;;;;;;3.80;3.20;;;;;;;11.10;100.00;101734.22;1051621;28;20305;-77
2022/07/23 02:22:11;;;;;;;3.75;3.28;;;;;;;11.12;100.00;101732.19;1052162;28;20294;-77
2022/07/23 02:22:43;;;;;;;3.63;3.30;;;;;;;11.11;100.00;101735.88;1052008;28;20751;-77
2022/07/23 02:23:15;;;;;;;4.05;3.65;;;;;;;11.15;100.00;101737.13;1052046;28;20297;-77
2022/07/23 02:23:47;;;;;;;3.80;3.50;;;;;;;11.14;100.00;101735.47;1052423;28;20290;-77
2022/07/23 02:24:18;;;;;;;6.07;3.67;;;;;;;11.15;100.00;101731.78;1047454;28;20307;-77
2022/07/23 02:24:50;;;;;;;3.40;3.10;;;;;;;11.13;100.00;101733.84;1043135;28;20314;-77
2022/07/23 02:25:22;;;;;;;4.60;3.85;;;;;;;11.13;100.00;101731.16;1043845;28;20785;-77
2022/07/23 02:25:58;;;;;;;3.97;3.58;;;;;;;11.11;100.00;101734.03;1044781;28;20303;-77
2022/07/23 02:26:32;;;;;;;3.67;3.38;;;;;;;11.06;100.00;101733.81;1040525;28;20326;-76
2022/07/23 02:27:05;;;;;;;3.03;2.83;;;;;;;11.07;100.00;101734.63;1038912;28;20307;-77
2022/07/23 02:27:38;;;;;;;3.22;3.03;;;;;;;11.06;100.00;101733.81;1035351;28;20697;-77
2022/07/23 02:28:10;;;;;;;3.05;2.85;;;;;;;11.18;100.00;101734.06;1036412;28;20316;-77
2022/07/23 02:28:42;;;;;;;3.65;3.35;;;;;;;11.25;100.00;101732.25;1039630;28;20812;-77
2022/07/23 02:29:13;;;;;;;5.95;3.20;;;;;;;11.28;100.00;101737.19;1043429;28;20307;-77
2022/07/23 02:29:45;;;;;;;4.00;2.97;;;;;;;11.33;100.00;101734.75;1035840;28;20315;-77
2022/07/23 02:30:18;;;;;;;3.53;3.15;;;;;;;11.31;100.00;101731.47;1044262;28;20381;-77
2022/07/23 02:30:50;;;;;;;3.88;3.47;;;;;;;11.30;100.00;101729.00;1043309;28;20295;-77